Time;durP1;ratioP1;P1;durP2;ratioP2;P2;SDS_P1;SDS_P2;PMS_P1;PMS_P2;Temp;Humidity;BMP_temperature;BMP_pressure;BME280_temperature;BME280_humidity;BME280_pressure;Samples;Min_cycle;Max_cycle;Signal;HPM_P1;HPM_P2
2022/12/02 00:00:20;;;;;;;44.97;18.35;;;;;;;;;;4749992;30;20036;-91
2022/12/02 00:02:46;;;;;;;41.42;17.83;;;;;;;;;;4759509;30;20024;-91
2022/12/02 00:05:15;;;;;;;46.00;18.42;;;;;;;;;;4768104;30;20378;-91
2022/12/02 00:07:44;;;;;;;48.58;19.83;;;;;;;;;;4765429;30;20055;-91
2022/12/02 00:10:25;;;;;;;41.97;18.85;;;;;;;;;;4753253;30;20398;-90
2022/12/02 00:12:51;;;;;;;41.50;17.85;;;;;;;;;;4764929;30;20506;-89
2022/12/02 00:15:44;;;;;;;50.08;19.40;;;;;;;;;;4745264;30;20020;-87
2022/12/02 00:18:15;;;;;;;44.72;18.45;;;;;;;;;;4745950;30;20040;-86
2022/12/02 00:20:41;;;;;;;53.53;21.58;;;;;;;;;;4763574;30;20089;-91
2022/12/02 00:23:07;;;;;;;56.47;21.45;;;;;;;;;;4749658;30;20032;-89
2022/12/02 00:25:33;;;;;;;53.17;20.65;;;;;;;;;;4762494;30;20043;-89
2022/12/02 00:27:59;;;;;;;54.28;21.60;;;;;;;;;;4764475;30;20032;-89
2022/12/02 00:30:25;;;;;;;52.13;20.25;;;;;;;;;;4751831;30;20059;-90
2022/12/02 00:32:51;;;;;;;57.28;21.38;;;;;;;;;;4772827;30;20035;-89
2022/12/02 00:35:16;;;;;;;50.83;20.33;;;;;;;;;;4749088;30;20460;-91
2022/12/02 00:37:42;;;;;;;58.40;20.42;;;;;;;;;;4752489;30;20032;-90
2022/12/02 00:40:08;;;;;;;58.42;20.55;;;;;;;;;;4767514;30;20098;-90
2022/12/02 00:42:34;;;;;;;60.22;21.48;;;;;;;;;;4748796;30;20052;-90
2022/12/02 00:47:43;;;;;;;56.67;20.05;;;;;;;;;;4770007;30;20571;-91
2022/12/02 00:50:09;;;;;;;56.63;20.08;;;;;;;;;;4771865;30;20027;-93
2022/12/02 00:52:35;;;;;;;63.70;20.20;;;;;;;;;;4768652;30;20168;-93
2022/12/02 00:55:00;;;;;;;58.72;20.27;;;;;;;;;;4748774;30;20134;-92
2022/12/02 00:57:26;;;;;;;55.10;18.95;;;;;;;;;;4765297;30;20070;-92
2022/12/02 00:59:51;;;;;;;58.47;19.80;;;;;;;;;;4768711;30;20039;-91
2022/12/02 01:02:17;;;;;;;54.08;20.40;;;;;;;;;;4755771;30;20024;-92
2022/12/02 01:04:42;;;;;;;54.75;18.65;;;;;;;;;;4751289;30;20096;-89
2022/12/02 01:07:08;;;;;;;57.10;20.23;;;;;;;;;;4749842;30;20056;-87
2022/12/02 01:09:33;;;;;;;53.78;18.33;;;;;;;;;;4770093;30;20039;-92
2022/12/02 01:11:58;;;;;;;53.40;19.40;;;;;;;;;;4756096;30;20032;-92
2022/12/02 01:14:24;;;;;;;51.30;17.95;;;;;;;;;;4752927;30;20031;-86
2022/12/02 01:16:49;;;;;;;46.75;17.08;;;;;;;;;;4753175;30;20127;-90
2022/12/02 01:19:15;;;;;;;44.88;17.02;;;;;;;;;;4763814;30;20027;-92
2022/12/02 01:21:40;;;;;;;52.45;18.30;;;;;;;;;;4751473;30;20036;-92
2022/12/02 01:24:05;;;;;;;46.17;17.95;;;;;;;;;;4751862;30;20032;-92
2022/12/02 01:26:31;;;;;;;44.00;17.35;;;;;;;;;;4751959;30;20039;-91
2022/12/02 01:28:56;;;;;;;42.42;16.52;;;;;;;;;;4766367;30;20046;-92
2022/12/02 01:31:22;;;;;;;44.42;17.27;;;;;;;;;;4753590;30;20028;-92
2022/12/02 01:33:47;;;;;;;51.85;17.77;;;;;;;;;;4752501;30;20040;-88
2022/12/02 01:36:13;;;;;;;44.75;17.55;;;;;;;;;;4763973;30;20715;-91
2022/12/02 01:38:38;;;;;;;47.95;18.13;;;;;;;;;;4754132;30;20039;-92
2022/12/02 01:41:05;;;;;;;47.40;17.98;;;;;;;;;;4769177;30;20039;-92
2022/12/02 01:43:30;;;;;;;43.70;16.98;;;;;;;;;;4757484;30;20028;-93
2022/12/02 01:45:56;;;;;;;40.58;16.05;;;;;;;;;;4753553;30;20039;-88
2022/12/02 01:48:22;;;;;;;43.67;17.33;;;;;;;;;;4777115;30;20035;-90
2022/12/02 01:50:48;;;;;;;43.47;17.08;;;;;;;;;;4774191;30;20506;-93
2022/12/02 01:53:14;;;;;;;37.63;15.77;;;;;;;;;;4761855;30;20039;-91
2022/12/02 01:55:40;;;;;;;43.17;16.58;;;;;;;;;;4753719;30;20039;-91
2022/12/02 01:58:10;;;;;;;41.50;16.27;;;;;;;;;;4762370;30;20031;-92
2022/12/02 02:00:35;;;;;;;40.53;16.77;;;;;;;;;;4767634;30;20135;-92
2022/12/02 02:03:01;;;;;;;38.75;15.80;;;;;;;;;;4766719;30;20146;-92
2022/12/02 02:05:29;;;;;;;37.50;16.20;;;;;;;;;;4769640;30;20034;-91
2022/12/02 02:07:57;;;;;;;37.10;16.17;;;;;;;;;;4757036;30;20105;-92
2022/12/02 02:10:24;;;;;;;34.70;13.93;;;;;;;;;;4772881;30;20063;-91
2022/12/02 02:12:50;;;;;;;36.50;15.75;;;;;;;;;;4767912;30;20028;-91
2022/12/02 02:15:16;;;;;;;36.47;14.52;;;;;;;;;;4763421;30;20036;-92
2022/12/02 02:17:43;;;;;;;41.17;15.30;;;;;;;;;;4754818;30;20032;-91
2022/12/02 02:20:13;;;;;;;40.63;16.23;;;;;;;;;;4750159;30;20086;-88
2022/12/02 02:22:51;;;;;;;42.95;15.75;;;;;;;;;;4761512;30;20084;-92
2022/12/02 02:25:17;;;;;;;40.90;15.77;;;;;;;;;;4755636;30;20024;-91
2022/12/02 02:27:55;;;;;;;42.83;15.60;;;;;;;;;;4746720;30;20046;-93
2022/12/02 02:30:20;;;;;;;39.53;15.82;;;;;;;;;;4749242;30;20028;-92
2022/12/02 02:32:47;;;;;;;37.00;14.38;;;;;;;;;;4751441;30;20894;-91
2022/12/02 02:35:13;;;;;;;36.15;16.50;;;;;;;;;;4752550;30;20039;-89
2022/12/02 02:37:38;;;;;;;42.33;17.02;;;;;;;;;;4762196;30;20035;-90
2022/12/02 02:40:05;;;;;;;35.42;15.48;;;;;;;;;;4761192;30;20035;-92
2022/12/02 02:42:30;;;;;;;36.33;14.77;;;;;;;;;;4751175;30;20478;-90
2022/12/02 02:44:55;;;;;;;42.42;16.40;;;;;;;;;;4752210;30;20027;-93
2022/12/02 02:47:21;;;;;;;37.38;15.80;;;;;;;;;;4757070;30;20041;-88
2022/12/02 02:49:47;;;;;;;38.65;14.90;;;;;;;;;;4765726;30;20071;-90
2022/12/02 02:52:12;;;;;;;31.95;14.75;;;;;;;;;;4752487;30;20615;-92
2022/12/02 02:54:38;;;;;;;40.50;16.60;;;;;;;;;;4750353;30;20047;-93
2022/12/02 02:57:03;;;;;;;35.10;14.85;;;;;;;;;;4765759;30;20036;-90
2022/12/02 02:59:28;;;;;;;34.60;15.15;;;;;;;;;;4760601;30;20031;-93
2022/12/02 03:01:54;;;;;;;37.85;15.25;;;;;;;;;;4753482;30;20044;-89
2022/12/02 03:04:21;;;;;;;40.35;14.88;;;;;;;;;;4759388;30;20034;-91
2022/12/02 03:06:49;;;;;;;36.85;15.35;;;;;;;;;;4754256;30;20074;-92
2022/12/02 03:09:18;;;;;;;38.60;14.77;;;;;;;;;;4747705;30;20512;-93
2022/12/02 03:11:46;;;;;;;40.55;15.48;;;;;;;;;;4761926;30;20478;-93
2022/12/02 03:14:13;;;;;;;34.90;15.70;;;;;;;;;;4745355;30;20024;-91
2022/12/02 03:16:38;;;;;;;36.70;15.48;;;;;;;;;;4748493;30;20070;-89
2022/12/02 03:19:04;;;;;;;37.17;15.10;;;;;;;;;;4747494;30;20036;-91
2022/12/02 03:21:32;;;;;;;38.60;15.05;;;;;;;;;;4751330;30;20801;-93
2022/12/02 03:24:00;;;;;;;34.97;14.80;;;;;;;;;;4750868;30;20478;-89
2022/12/02 03:26:27;;;;;;;31.77;14.63;;;;;;;;;;4767154;30;20489;-92
2022/12/02 03:28:54;;;;;;;39.15;15.13;;;;;;;;;;4745149;30;20509;-93
2022/12/02 03:31:21;;;;;;;32.47;13.85;;;;;;;;;;4753749;30;20059;-87
2022/12/02 03:33:47;;;;;;;35.90;15.05;;;;;;;;;;4752933;30;20122;-90
2022/12/02 03:36:13;;;;;;;32.78;14.27;;;;;;;;;;4757100;30;20191;-91
2022/12/02 03:38:39;;;;;;;34.33;14.70;;;;;;;;;;4751348;30;20047;-91
2022/12/02 03:41:05;;;;;;;38.13;14.50;;;;;;;;;;4749374;30;20035;-93
2022/12/02 03:43:31;;;;;;;31.83;13.40;;;;;;;;;;4752653;30;20024;-89
2022/12/02 03:45:57;;;;;;;35.33;15.48;;;;;;;;;;4749375;30;20397;-91
2022/12/02 03:48:24;;;;;;;31.85;14.00;;;;;;;;;;4766453;30;20498;-92
2022/12/02 03:50:51;;;;;;;33.55;13.85;;;;;;;;;;4769057;30;20065;-91
2022/12/02 03:53:16;;;;;;;35.78;14.63;;;;;;;;;;4762299;30;20031;-91
2022/12/02 03:55:42;;;;;;;33.58;13.43;;;;;;;;;;4746243;30;21499;-87
2022/12/02 03:58:08;;;;;;;31.23;13.57;;;;;;;;;;4748029;30;20027;-89
2022/12/02 04:00:34;;;;;;;33.60;13.48;;;;;;;;;;4762110;30;20134;-87
2022/12/02 04:03:00;;;;;;;36.72;13.95;;;;;;;;;;4765331;30;20031;-90
2022/12/02 04:05:25;;;;;;;35.17;14.43;;;;;;;;;;4770296;29;20367;-88
2022/12/02 04:07:51;;;;;;;35.08;14.35;;;;;;;;;;4750732;30;20506;-92
2022/12/02 04:10:16;;;;;;;34.83;12.43;;;;;;;;;;4763559;30;20528;-92
2022/12/02 04:12:41;;;;;;;32.67;13.82;;;;;;;;;;4752351;30;20107;-92
2022/12/02 04:15:08;;;;;;;33.58;13.35;;;;;;;;;;4761837;30;20035;-92
2022/12/02 04:17:34;;;;;;;33.95;14.13;;;;;;;;;;4755942;30;20533;-92
2022/12/02 04:19:59;;;;;;;33.58;12.77;;;;;;;;;;4767340;30;20130;-93
2022/12/02 04:22:24;;;;;;;34.55;13.00;;;;;;;;;;4754091;30;20024;-91
2022/12/02 04:24:50;;;;;;;33.33;12.90;;;;;;;;;;4754568;30;20036;-92
2022/12/02 04:27:15;;;;;;;35.95;12.60;;;;;;;;;;4748443;30;20085;-94
2022/12/02 04:29:41;;;;;;;34.13;12.40;;;;;;;;;;4756559;30;20042;-91
2022/12/02 04:32:06;;;;;;;25.67;10.88;;;;;;;;;;4747165;30;20043;-93
2022/12/02 04:34:31;;;;;;;28.60;11.60;;;;;;;;;;4751650;30;20031;-92
2022/12/02 04:36:57;;;;;;;26.60;10.20;;;;;;;;;;4763045;30;20028;-93
2022/12/02 04:39:22;;;;;;;31.48;12.27;;;;;;;;;;4744933;30;20089;-92
2022/12/02 04:41:48;;;;;;;25.60;9.18;;;;;;;;;;4764003;30;20031;-92
2022/12/02 04:44:13;;;;;;;26.73;9.65;;;;;;;;;;4759065;30;20081;-92
2022/12/02 04:46:39;;;;;;;20.65;9.60;;;;;;;;;;4749681;30;20040;-91
2022/12/02 04:49:04;;;;;;;25.60;10.10;;;;;;;;;;4750744;30;20042;-92
2022/12/02 04:51:31;;;;;;;24.95;9.88;;;;;;;;;;4747901;30;20039;-90
2022/12/02 04:53:56;;;;;;;29.70;9.90;;;;;;;;;;4748040;30;20024;-93
2022/12/02 04:56:21;;;;;;;27.42;10.82;;;;;;;;;;4763635;30;20528;-91
2022/12/02 04:58:47;;;;;;;25.88;11.05;;;;;;;;;;4746307;30;20047;-90
2022/12/02 05:01:12;;;;;;;25.50;9.80;;;;;;;;;;4748847;30;20127;-93
2022/12/02 05:03:37;;;;;;;28.15;10.00;;;;;;;;;;4743262;30;20032;-91
2022/12/02 05:06:03;;;;;;;24.48;9.57;;;;;;;;;;4741133;30;20044;-92
2022/12/02 05:08:28;;;;;;;25.88;9.95;;;;;;;;;;4749555;30;20048;-92
2022/12/02 05:10:54;;;;;;;27.20;9.95;;;;;;;;;;4763696;30;20031;-92
2022/12/02 05:13:19;;;;;;;23.70;9.52;;;;;;;;;;4748087;30;20070;-93
2022/12/02 05:15:44;;;;;;;27.95;10.45;;;;;;;;;;4766189;30;20035;-88
2022/12/02 05:18:10;;;;;;;27.45;10.15;;;;;;;;;;4763226;30;20081;-89
2022/12/02 05:20:35;;;;;;;24.05;10.10;;;;;;;;;;4750198;30;20397;-91
2022/12/02 05:23:01;;;;;;;29.98;9.85;;;;;;;;;;4749948;30;20031;-92
2022/12/02 05:25:26;;;;;;;25.75;9.82;;;;;;;;;;4755446;30;20035;-92
2022/12/02 05:27:52;;;;;;;28.35;10.52;;;;;;;;;;4750237;30;20059;-92
2022/12/02 05:30:17;;;;;;;28.92;11.10;;;;;;;;;;4752346;30;20120;-90
2022/12/02 05:32:42;;;;;;;28.88;9.43;;;;;;;;;;4752847;30;20036;-93
2022/12/02 05:35:08;;;;;;;25.80;10.68;;;;;;;;;;4764497;30;20122;-92
2022/12/02 05:37:33;;;;;;;28.25;10.20;;;;;;;;;;4763934;30;20040;-93
2022/12/02 05:40:01;;;;;;;25.95;11.32;;;;;;;;;;4754160;30;20406;-93
2022/12/02 05:42:27;;;;;;;25.73;10.82;;;;;;;;;;4771706;30;20063;-91
2022/12/02 05:44:52;;;;;;;24.63;9.77;;;;;;;;;;4748586;30;20040;-93
2022/12/02 05:47:18;;;;;;;26.58;10.82;;;;;;;;;;4766296;30;20035;-91
2022/12/02 05:49:45;;;;;;;24.30;9.95;;;;;;;;;;4769414;30;20044;-91
2022/12/02 05:52:22;;;;;;;24.70;8.68;;;;;;;;;;4758867;30;20066;-93
2022/12/02 05:54:51;;;;;;;20.23;8.20;;;;;;;;;;4750669;30;20516;-91
2022/12/02 05:57:29;;;;;;;23.95;8.02;;;;;;;;;;4760791;30;20035;-92
2022/12/02 06:00:11;;;;;;;22.33;8.15;;;;;;;;;;4767373;30;20144;-92
2022/12/02 06:02:40;;;;;;;23.10;9.07;;;;;;;;;;4753462;30;20031;-92
2022/12/02 06:05:32;;;;;;;18.70;7.55;;;;;;;;;;4745727;30;20521;-91
2022/12/02 06:08:28;;;;;;;19.17;8.02;;;;;;;;;;4753660;30;20437;-91
2022/12/02 06:10:58;;;;;;;20.55;8.57;;;;;;;;;;4742242;30;20059;-92
2022/12/02 06:13:26;;;;;;;17.92;7.50;;;;;;;;;;4750118;30;20524;-93
2022/12/02 06:15:53;;;;;;;21.13;8.05;;;;;;;;;;4744168;30;20035;-89
2022/12/02 06:18:22;;;;;;;19.33;7.40;;;;;;;;;;4747922;30;20043;-92
2022/12/02 06:20:53;;;;;;;16.52;7.70;;;;;;;;;;4750394;30;20043;-93
2022/12/02 06:23:20;;;;;;;19.08;7.45;;;;;;;;;;4748998;30;20054;-91
2022/12/02 06:25:46;;;;;;;19.65;7.60;;;;;;;;;;4763004;30;20032;-93
2022/12/02 06:28:27;;;;;;;19.50;8.05;;;;;;;;;;4752584;30;20035;-90
2022/12/02 06:31:08;;;;;;;21.35;8.45;;;;;;;;;;4764380;30;20036;-90
2022/12/02 06:33:36;;;;;;;15.63;7.05;;;;;;;;;;4752563;30;20031;-89
2022/12/02 06:36:04;;;;;;;18.13;7.18;;;;;;;;;;4761879;30;20036;-88
2022/12/02 06:38:36;;;;;;;19.23;8.18;;;;;;;;;;4755469;30;20489;-90
2022/12/02 06:41:13;;;;;;;21.40;8.45;;;;;;;;;;4766123;30;20040;-85
2022/12/02 06:43:39;;;;;;;19.77;8.27;;;;;;;;;;4753309;30;20064;-92
2022/12/02 06:46:14;;;;;;;19.67;8.15;;;;;;;;;;4752776;30;20074;-90
2022/12/02 06:48:40;;;;;;;16.23;7.63;;;;;;;;;;4747956;30;20043;-89
2022/12/02 06:51:20;;;;;;;19.88;8.13;;;;;;;;;;4754093;30;20027;-88
2022/12/02 06:53:46;;;;;;;17.85;8.07;;;;;;;;;;4766679;30;20036;-92
2022/12/02 06:56:18;;;;;;;20.17;8.05;;;;;;;;;;4764550;30;20040;-90
2022/12/02 06:58:56;;;;;;;18.80;7.63;;;;;;;;;;4762531;30;20390;-90
2022/12/02 07:01:42;;;;;;;21.38;8.13;;;;;;;;;;4761092;30;20031;-90
2022/12/02 07:04:07;;;;;;;18.70;7.75;;;;;;;;;;4767317;30;20024;-90
2022/12/02 07:06:44;;;;;;;17.55;7.65;;;;;;;;;;4749137;30;20050;-93
2022/12/02 07:09:23;;;;;;;19.50;8.20;;;;;;;;;;4749884;30;20050;-92
2022/12/02 07:11:54;;;;;;;21.58;8.32;;;;;;;;;;4753378;30;20045;-87
2022/12/02 07:14:38;;;;;;;22.38;8.70;;;;;;;;;;4760077;30;20059;-90
2022/12/02 07:17:33;;;;;;;15.05;7.25;;;;;;;;;;4773108;30;20035;-91
2022/12/02 07:20:05;;;;;;;19.60;7.97;;;;;;;;;;4753545;30;20041;-93
2022/12/02 07:22:49;;;;;;;16.67;7.63;;;;;;;;;;4767773;30;20493;-86
2022/12/02 07:25:15;;;;;;;19.75;7.78;;;;;;;;;;4748448;30;20067;-86
2022/12/02 07:27:43;;;;;;;20.23;8.18;;;;;;;;;;4769799;30;20067;-91
2022/12/02 07:30:29;;;;;;;18.08;7.75;;;;;;;;;;4752331;30;20100;-89
2022/12/02 07:32:56;;;;;;;21.17;8.43;;;;;;;;;;4755967;30;20511;-92
2022/12/02 07:35:21;;;;;;;18.80;7.88;;;;;;;;;;4751895;30;20069;-91
2022/12/02 07:37:47;;;;;;;19.85;8.35;;;;;;;;;;4761774;30;20036;-91
2022/12/02 07:40:13;;;;;;;18.55;8.00;;;;;;;;;;4747611;30;20402;-86
2022/12/02 07:42:42;;;;;;;20.45;8.45;;;;;;;;;;4747984;30;20032;-91
2022/12/02 07:45:13;;;;;;;19.23;8.77;;;;;;;;;;4751462;30;20031;-90
2022/12/02 07:47:39;;;;;;;23.38;8.93;;;;;;;;;;4749816;30;20035;-89
2022/12/02 07:50:05;;;;;;;18.30;7.85;;;;;;;;;;4750709;30;20139;-91
2022/12/02 07:52:30;;;;;;;19.52;7.55;;;;;;;;;;4752769;30;20035;-89
2022/12/02 07:54:56;;;;;;;22.90;9.10;;;;;;;;;;4755729;30;20036;-91
2022/12/02 07:57:22;;;;;;;22.23;9.10;;;;;;;;;;4767665;30;20114;-91
2022/12/02 07:59:47;;;;;;;19.15;7.85;;;;;;;;;;4753017;30;20134;-93
2022/12/02 08:02:13;;;;;;;19.20;8.40;;;;;;;;;;4769104;30;20106;-89
2022/12/02 08:04:39;;;;;;;20.73;8.20;;;;;;;;;;4759011;30;20500;-91
2022/12/02 08:07:05;;;;;;;20.83;8.30;;;;;;;;;;4753847;30;20143;-90
2022/12/02 08:09:30;;;;;;;18.10;7.95;;;;;;;;;;4753257;30;20126;-91
2022/12/02 08:11:56;;;;;;;17.13;8.23;;;;;;;;;;4750724;30;20648;-89
2022/12/02 08:14:21;;;;;;;19.88;8.43;;;;;;;;;;4770541;30;20478;-92
2022/12/02 08:16:46;;;;;;;18.42;8.25;;;;;;;;;;4768136;30;20039;-91
2022/12/02 08:19:12;;;;;;;19.13;8.95;;;;;;;;;;4753893;30;20101;-90
2022/12/02 08:21:39;;;;;;;21.63;8.38;;;;;;;;;;4753446;30;20115;-91
2022/12/02 08:24:05;;;;;;;20.52;8.80;;;;;;;;;;4769466;30;20032;-91
2022/12/02 08:26:31;;;;;;;20.73;8.55;;;;;;;;;;4766532;30;20032;-90
2022/12/02 08:28:57;;;;;;;17.52;7.93;;;;;;;;;;4759185;30;20039;-90
2022/12/02 08:31:22;;;;;;;23.67;10.05;;;;;;;;;;4757691;30;20096;-92
2022/12/02 08:33:48;;;;;;;23.08;8.70;;;;;;;;;;4764533;30;20043;-92
2022/12/02 08:36:14;;;;;;;21.38;8.85;;;;;;;;;;4767299;30;20039;-91
2022/12/02 08:38:41;;;;;;;19.10;7.97;;;;;;;;;;4745463;30;20486;-91
2022/12/02 08:41:06;;;;;;;20.80;9.10;;;;;;;;;;4769057;30;20401;-90
2022/12/02 08:43:32;;;;;;;20.10;8.40;;;;;;;;;;4753203;30;20080;-92
2022/12/02 08:45:57;;;;;;;19.90;8.02;;;;;;;;;;4751985;30;20043;-91
2022/12/02 08:48:23;;;;;;;18.98;8.52;;;;;;;;;;4753133;30;20034;-90
2022/12/02 08:50:48;;;;;;;19.15;8.27;;;;;;;;;;4767491;30;20032;-92
2022/12/02 08:53:14;;;;;;;15.93;7.32;;;;;;;;;;4772641;30;20035;-91
2022/12/02 08:55:39;;;;;;;19.17;7.72;;;;;;;;;;4750152;30;20035;-93
2022/12/02 08:58:05;;;;;;;16.90;6.97;;;;;;;;;;4753225;30;20440;-92
2022/12/02 09:00:30;;;;;;;17.13;8.25;;;;;;;;;;4755024;30;20082;-92
2022/12/02 09:02:56;;;;;;;15.40;7.75;;;;;;;;;;4785401;30;20031;-92
2022/12/02 09:05:21;;;;;;;21.88;8.02;;;;;;;;;;4771687;30;20039;-88
2022/12/02 09:07:47;;;;;;;17.48;7.40;;;;;;;;;;4750364;30;20413;-82
2022/12/02 09:10:13;;;;;;;17.45;7.30;;;;;;;;;;4759952;30;20046;-92
2022/12/02 09:12:39;;;;;;;19.95;7.95;;;;;;;;;;4774466;30;20157;-92
2022/12/02 09:15:05;;;;;;;17.13;7.60;;;;;;;;;;4760697;30;20478;-89
2022/12/02 09:17:31;;;;;;;18.38;8.27;;;;;;;;;;4770855;30;20490;-89
2022/12/02 09:19:56;;;;;;;19.90;8.02;;;;;;;;;;4769485;30;20074;-91
2022/12/02 09:22:22;;;;;;;20.75;7.88;;;;;;;;;;4768605;30;20038;-91
2022/12/02 09:24:47;;;;;;;17.42;8.02;;;;;;;;;;4755207;30;20166;-91
2022/12/02 09:27:13;;;;;;;21.77;8.35;;;;;;;;;;4753876;30;20035;-90
2022/12/02 09:29:38;;;;;;;19.65;8.45;;;;;;;;;;4761864;30;20088;-90
2022/12/02 09:32:04;;;;;;;22.40;9.05;;;;;;;;;;4775573;30;20393;-90
2022/12/02 09:34:29;;;;;;;20.67;8.80;;;;;;;;;;4773836;30;20031;-90
2022/12/02 09:36:54;;;;;;;18.67;7.78;;;;;;;;;;4763928;30;20127;-89
2022/12/02 09:39:20;;;;;;;19.48;8.75;;;;;;;;;;4760534;30;20035;-91
2022/12/02 09:41:45;;;;;;;26.83;9.32;;;;;;;;;;4768885;30;20040;-89
2022/12/02 09:44:11;;;;;;;25.67;9.60;;;;;;;;;;4759528;30;20114;-89
2022/12/02 09:46:37;;;;;;;24.15;9.40;;;;;;;;;;4758887;30;20502;-90
2022/12/02 09:49:02;;;;;;;22.98;8.93;;;;;;;;;;4750641;30;20474;-89
2022/12/02 09:51:28;;;;;;;22.77;9.05;;;;;;;;;;4753474;30;20409;-89
2022/12/02 09:53:54;;;;;;;24.70;9.10;;;;;;;;;;4757372;30;20039;-87
2022/12/02 09:56:20;;;;;;;25.73;9.13;;;;;;;;;;4768198;30;20119;-91
2022/12/02 09:58:52;;;;;;;22.75;9.27;;;;;;;;;;4755588;30;20055;-91
2022/12/02 10:01:18;;;;;;;22.05;8.98;;;;;;;;;;4770358;30;20035;-90
2022/12/02 10:03:45;;;;;;;22.58;9.40;;;;;;;;;;4784132;29;20512;-91
2022/12/02 10:06:23;;;;;;;20.45;8.57;;;;;;;;;;4768143;30;20044;-90
2022/12/02 10:08:49;;;;;;;20.67;8.60;;;;;;;;;;4771642;30;20052;-85
2022/12/02 10:11:28;;;;;;;20.70;9.23;;;;;;;;;;4769474;30;20039;-91
2022/12/02 10:13:55;;;;;;;29.27;9.98;;;;;;;;;;4777146;30;20035;-91
2022/12/02 10:16:21;;;;;;;21.80;8.68;;;;;;;;;;4748769;30;20145;-90
2022/12/02 10:18:47;;;;;;;23.98;8.93;;;;;;;;;;4772134;30;20106;-90
2022/12/02 10:21:14;;;;;;;23.60;9.52;;;;;;;;;;4768709;30;20050;-91
2022/12/02 10:24:00;;;;;;;21.75;9.55;;;;;;;;;;4775761;30;20032;-90
2022/12/02 10:26:40;;;;;;;24.63;8.93;;;;;;;;;;4768510;30;20504;-93
2022/12/02 10:29:08;;;;;;;26.83;9.60;;;;;;;;;;4755802;30;20567;-91
2022/12/02 10:31:34;;;;;;;22.55;9.25;;;;;;;;;;4771529;30;20439;-88
2022/12/02 10:34:05;;;;;;;25.25;9.68;;;;;;;;;;4751431;30;20115;-90
2022/12/02 10:36:40;;;;;;;20.73;8.68;;;;;;;;;;4756485;30;20035;-89
2022/12/02 10:39:17;;;;;;;27.95;10.30;;;;;;;;;;4775170;30;20451;-90
2022/12/02 10:41:42;;;;;;;22.67;8.93;;;;;;;;;;4753579;30;20088;-88
2022/12/02 10:44:19;;;;;;;22.52;9.07;;;;;;;;;;4770089;30;20489;-91
2022/12/02 10:46:45;;;;;;;18.77;8.02;;;;;;;;;;4756451;30;20492;-91
2022/12/02 10:49:27;;;;;;;23.77;8.32;;;;;;;;;;4759383;30;20035;-91
2022/12/02 10:51:57;;;;;;;22.83;8.73;;;;;;;;;;4769887;30;20104;-85
2022/12/02 10:54:33;;;;;;;22.02;9.02;;;;;;;;;;4771232;30;20447;-89
2022/12/02 10:57:00;;;;;;;22.25;8.30;;;;;;;;;;4753402;30;20035;-89
2022/12/02 10:59:26;;;;;;;19.27;8.55;;;;;;;;;;4751997;30;20043;-89
2022/12/02 11:01:53;;;;;;;20.63;8.98;;;;;;;;;;4766155;30;20035;-90
2022/12/02 11:04:19;;;;;;;21.60;8.60;;;;;;;;;;4753666;30;20055;-92
2022/12/02 11:06:46;;;;;;;23.63;9.10;;;;;;;;;;4758568;30;20093;-90
2022/12/02 11:09:19;;;;;;;24.95;9.68;;;;;;;;;;4757063;30;20036;-91
2022/12/02 11:11:45;;;;;;;31.88;9.77;;;;;;;;;;4754989;30;20047;-92
2022/12/02 11:14:39;;;;;;;23.73;9.23;;;;;;;;;;4756372;30;20118;-91
2022/12/02 11:17:07;;;;;;;22.60;8.93;;;;;;;;;;4746005;30;20119;-91
2022/12/02 11:19:33;;;;;;;23.25;10.05;;;;;;;;;;4766056;30;20054;-87
2022/12/02 11:21:58;;;;;;;23.83;9.60;;;;;;;;;;4764041;30;20048;-88
2022/12/02 11:24:26;;;;;;;28.08;10.38;;;;;;;;;;4772154;30;20031;-89
2022/12/02 11:26:58;;;;;;;23.80;9.70;;;;;;;;;;4764511;30;20114;-89
2022/12/02 11:29:25;;;;;;;24.15;9.35;;;;;;;;;;4768321;30;20509;-90
2022/12/02 11:32:36;;;;;;;22.92;9.52;;;;;;;;;;4771839;30;20122;-90
2022/12/02 11:35:03;;;;;;;27.48;9.63;;;;;;;;;;4745042;30;20138;-87
2022/12/02 11:37:28;;;;;;;22.88;8.52;;;;;;;;;;4753508;30;20024;-90
2022/12/02 11:40:00;;;;;;;21.55;8.18;;;;;;;;;;4753570;30;20409;-89
2022/12/02 11:42:30;;;;;;;22.20;8.82;;;;;;;;;;4763908;30;20046;-89
2022/12/02 11:45:14;;;;;;;22.45;8.95;;;;;;;;;;4770754;30;20035;-90
2022/12/02 11:47:41;;;;;;;21.25;7.43;;;;;;;;;;4770437;30;20111;-91
2022/12/02 11:50:16;;;;;;;20.40;8.38;;;;;;;;;;4773134;30;20136;-88
2022/12/02 11:52:51;;;;;;;19.77;8.48;;;;;;;;;;4753100;30;20036;-91
2022/12/02 11:55:31;;;;;;;23.83;8.82;;;;;;;;;;4754785;30;20071;-90
2022/12/02 11:57:57;;;;;;;21.40;8.75;;;;;;;;;;4773485;30;20024;-91
2022/12/02 12:00:25;;;;;;;25.90;9.48;;;;;;;;;;4765377;30;20031;-90
2022/12/02 12:03:17;;;;;;;27.45;9.38;;;;;;;;;;4753796;30;20508;-90
2022/12/02 12:06:04;;;;;;;24.92;9.13;;;;;;;;;;4763398;30;20386;-89
2022/12/02 12:08:29;;;;;;;26.55;9.63;;;;;;;;;;4775691;30;20557;-91
2022/12/02 12:11:36;;;;;;;25.40;9.02;;;;;;;;;;4759589;30;20122;-92
2022/12/02 12:14:11;;;;;;;24.38;9.50;;;;;;;;;;4734346;30;20068;-90
2022/12/02 12:16:46;;;;;;;21.52;8.63;;;;;;;;;;4715739;30;20116;-91
2022/12/02 12:19:11;;;;;;;24.35;8.48;;;;;;;;;;4753649;30;20040;-89
2022/12/02 12:21:53;;;;;;;21.75;7.85;;;;;;;;;;4749713;30;20089;-90
2022/12/02 12:24:22;;;;;;;22.20;7.28;;;;;;;;;;4773077;29;20527;-89
2022/12/02 12:26:51;;;;;;;24.00;7.80;;;;;;;;;;4761651;30;20089;-91
2022/12/02 12:29:18;;;;;;;22.05;8.05;;;;;;;;;;4756099;30;20082;-91
2022/12/02 12:31:44;;;;;;;23.15;9.27;;;;;;;;;;4777827;30;20489;-89
2022/12/02 12:34:10;;;;;;;22.40;8.30;;;;;;;;;;4756035;30;20043;-89
2022/12/02 12:36:36;;;;;;;25.77;8.70;;;;;;;;;;4765428;30;20504;-91
2022/12/02 12:39:04;;;;;;;25.75;9.05;;;;;;;;;;4770249;30;20032;-89
2022/12/02 12:41:29;;;;;;;23.45;8.27;;;;;;;;;;4772683;30;20032;-89
2022/12/02 12:43:55;;;;;;;22.55;9.18;;;;;;;;;;4773917;30;20114;-91
2022/12/02 12:46:20;;;;;;;21.65;7.72;;;;;;;;;;4774044;30;20501;-91
2022/12/02 12:48:46;;;;;;;24.23;8.00;;;;;;;;;;4776283;30;20040;-91
2022/12/02 12:51:11;;;;;;;22.70;7.75;;;;;;;;;;4752572;30;20090;-91
2022/12/02 12:53:36;;;;;;;25.35;8.30;;;;;;;;;;4779767;30;20062;-92
2022/12/02 12:56:02;;;;;;;22.13;7.82;;;;;;;;;;4778328;30;20031;-90
2022/12/02 12:58:28;;;;;;;19.33;7.90;;;;;;;;;;4756760;30;20035;-92
2022/12/02 13:00:53;;;;;;;20.67;7.50;;;;;;;;;;4755240;30;20034;-91
2022/12/02 13:03:19;;;;;;;20.00;7.13;;;;;;;;;;4772327;30;20032;-91
2022/12/02 13:05:44;;;;;;;27.38;9.63;;;;;;;;;;4756871;30;20046;-90
2022/12/02 13:08:10;;;;;;;27.70;7.65;;;;;;;;;;4771853;30;20066;-88
2022/12/02 13:10:35;;;;;;;22.08;8.63;;;;;;;;;;4779530;30;20089;-89
2022/12/02 13:13:01;;;;;;;22.73;7.35;;;;;;;;;;4757228;30;20040;-90
2022/12/02 13:15:27;;;;;;;26.42;8.52;;;;;;;;;;4757434;30;20032;-91
2022/12/02 13:17:52;;;;;;;20.77;7.65;;;;;;;;;;4756420;30;20077;-91
2022/12/02 13:20:18;;;;;;;19.52;8.13;;;;;;;;;;4774966;30;20462;-89
2022/12/02 13:22:44;;;;;;;23.08;8.15;;;;;;;;;;4753539;30;20036;-90
2022/12/02 13:25:11;;;;;;;23.92;7.82;;;;;;;;;;4754215;30;20036;-90
2022/12/02 13:27:37;;;;;;;21.75;8.00;;;;;;;;;;4758128;30;20492;-90
2022/12/02 13:30:09;;;;;;;20.63;7.60;;;;;;;;;;4767218;30;20047;-91
2022/12/02 13:32:35;;;;;;;19.60;7.15;;;;;;;;;;4748475;30;20031;-91
2022/12/02 13:35:02;;;;;;;18.30;7.47;;;;;;;;;;4778586;30;20038;-90
2022/12/02 13:37:27;;;;;;;20.88;7.88;;;;;;;;;;4769164;30;20420;-90
2022/12/02 13:39:53;;;;;;;16.15;7.18;;;;;;;;;;4757646;30;20036;-90
2022/12/02 13:42:18;;;;;;;20.38;7.22;;;;;;;;;;4756159;30;20027;-92
2022/12/02 13:44:43;;;;;;;17.55;7.18;;;;;;;;;;4784503;30;20058;-90
2022/12/02 13:47:09;;;;;;;17.48;7.15;;;;;;;;;;4772691;30;20038;-88
2022/12/02 13:49:35;;;;;;;21.48;7.45;;;;;;;;;;4758297;30;20417;-89
2022/12/02 13:52:00;;;;;;;20.63;7.25;;;;;;;;;;4753269;30;20039;-88
2022/12/02 13:54:26;;;;;;;17.02;6.63;;;;;;;;;;4774909;30;20027;-89
2022/12/02 13:56:51;;;;;;;17.38;7.35;;;;;;;;;;4771322;30;20118;-88
2022/12/02 13:59:17;;;;;;;16.10;6.53;;;;;;;;;;4771555;30;20036;-90
2022/12/02 14:01:42;;;;;;;19.95;7.10;;;;;;;;;;4784199;30;20061;-90
2022/12/02 14:04:08;;;;;;;16.48;6.88;;;;;;;;;;4760754;30;20465;-88
2022/12/02 14:06:33;;;;;;;20.23;7.47;;;;;;;;;;4756747;30;20035;-87
2022/12/02 14:08:59;;;;;;;19.55;7.25;;;;;;;;;;4772619;30;20098;-90
2022/12/02 14:11:25;;;;;;;17.15;6.88;;;;;;;;;;4775108;30;20028;-89
2022/12/02 14:13:51;;;;;;;16.10;6.95;;;;;;;;;;4777946;30;20032;-85
2022/12/02 14:16:16;;;;;;;16.33;6.28;;;;;;;;;;4755371;30;20055;-91
2022/12/02 14:18:41;;;;;;;16.83;6.45;;;;;;;;;;4756729;30;20032;-88
2022/12/02 14:21:07;;;;;;;17.75;6.55;;;;;;;;;;4756034;30;20082;-89
2022/12/02 14:23:32;;;;;;;16.10;5.82;;;;;;;;;;4777422;30;20028;-88
2022/12/02 14:25:58;;;;;;;14.75;5.65;;;;;;;;;;4776605;30;20036;-87
2022/12/02 14:28:23;;;;;;;15.15;5.95;;;;;;;;;;4775926;30;20036;-87
2022/12/02 14:30:49;;;;;;;12.15;5.22;;;;;;;;;;4767928;30;20040;-86
2022/12/02 14:33:14;;;;;;;17.35;5.40;;;;;;;;;;4767064;30;20039;-86